Terminal Aerodrome Forecast
Issued by NWS

Home | Current Version | Previous Version | Text Only | Print | Product List | Glossary On
Versions: 1 2 3 4 5 6 7 8 9 10 11 12 13 14 15 16 17 18 19 20 21 22 23 24 25 26
000
FTUS41 KBOX 121728
TAFBAF
TAF
KBAF 121728Z 1218/1318 VRB03KT P6SM SCT050
     FM121930 22006KT P6SM SCT050
     FM122100 21007KT P6SM BKN050
     FM130300 18006KT P6SM SCT090
     FM130900 VRB03KT 5SM BR SCT070
     FM131200 18005KT P6SM BKN060
     FM131600 20009KT P6SM BKN050=

USA.gov is the U.S. government's official web portal to all federal, state and local government web resources and services.